SVR206 URMM-USSS
Flight info
| Callsign | SVR206 |
|---|---|
| Flight time | 2h 21m |
| Altitude | 37000 |
| Route | K0833F370 UGBES5M UGBES G487 OBATA L988 ATR N60 AKB L992 NEBIS NEBIS6R |
| Aircraft | A320/M-SDE3FGHIRWY/LB1 |
Departure
| Time | 2026-04-20 16:00 |
|---|---|
| Airport | Mineralnye Vody Airport (URMM) |
Arrival
| Time | 2026-04-20 18:22 |
|---|---|
| Airport | Koltsovo Airport (USSS) |
| Time | Latitude | Longitude | Altitude | Speed | Heading |
|---|---|---|---|---|---|
| 2026-04-20 15:45 | 44.21668 | 43.09193 | 1051 ft | 0 kts | 212° |
| 2026-04-20 15:45 | 44.21670 | 43.09195 | 1051 ft | 1 kts | 212° |
| 2026-04-20 15:45 | 44.21685 | 43.09207 | 1051 ft | 3 kts | 209° |
| 2026-04-20 15:45 | 44.21703 | 43.09220 | 1051 ft | 3 kts | 203° |
| 2026-04-20 15:46 | 44.21721 | 43.09230 | 1051 ft | 3 kts | 190° |
| 2026-04-20 15:46 | 44.21740 | 43.09231 | 1051 ft | 3 kts | 155° |
| 2026-04-20 15:46 | 44.21749 | 43.09223 | 1051 ft | 1 kts | 122° |
| 2026-04-20 15:48 | 44.21748 | 43.09226 | 1051 ft | 4 kts | 122° |
| 2026-04-20 15:48 | 44.21681 | 43.09340 | 1051 ft | 17 kts | 134° |
| 2026-04-20 15:48 | 44.21619 | 43.09468 | 1051 ft | 15 kts | 122° |
| 2026-04-20 15:49 | 44.21567 | 43.09585 | 1051 ft | 13 kts | 122° |
| 2026-04-20 15:49 | 44.21520 | 43.09688 | 1051 ft | 12 kts | 122° |
| 2026-04-20 15:49 | 44.21513 | 43.09782 | 1051 ft | 9 kts | 75° |
| 2026-04-20 15:49 | 44.21526 | 43.09863 | 1051 ft | 8 kts | 77° |
| 2026-04-20 15:50 | 44.21538 | 43.09932 | 1051 ft | 7 kts | 77° |
| 2026-04-20 15:50 | 44.21550 | 43.10006 | 1051 ft | 15 kts | 76° |
| 2026-04-20 15:50 | 44.21589 | 43.10205 | 1053 ft | 15 kts | 57° |
| 2026-04-20 15:50 | 44.21679 | 43.10288 | 1050 ft | 16 kts | 32° |
| 2026-04-20 15:51 | 44.21772 | 43.10296 | 1052 ft | 10 kts | 313° |
| 2026-04-20 15:51 | 44.21782 | 43.10275 | 1054 ft | 0 kts | 303° |
| 2026-04-20 15:54 | 44.21782 | 43.10276 | 1053 ft | 0 kts | 303° |
| 2026-04-20 15:57 | 44.21783 | 43.10274 | 1053 ft | 2 kts | 303° |
| 2026-04-20 15:58 | 44.21789 | 43.10260 | 1053 ft | 0 kts | 303° |
| 2026-04-20 15:59 | 44.21789 | 43.10261 | 1053 ft | 0 kts | 303° |
| 2026-04-20 15:59 | 44.21802 | 43.10232 | 1053 ft | 20 kts | 302° |
| 2026-04-20 15:59 | 44.22019 | 43.09754 | 1056 ft | 92 kts | 302° |
| 2026-04-20 15:59 | 44.22468 | 43.08765 | 1055 ft | 147 kts | 302° |
| 2026-04-20 16:00 | 44.23058 | 43.07470 | 1430 ft | 159 kts | 303° |
| 2026-04-20 16:00 | 44.23664 | 43.06147 | 2086 ft | 168 kts | 303° |
| 2026-04-20 16:00 | 44.24335 | 43.04673 | 2450 ft | 191 kts | 303° |
| 2026-04-20 16:00 | 44.25089 | 43.03008 | 2835 ft | 215 kts | 303° |
| 2026-04-20 16:01 | 44.25929 | 43.01146 | 3273 ft | 238 kts | 303° |
| 2026-04-20 16:01 | 44.27094 | 42.99445 | 3974 ft | 249 kts | 328° |
| 2026-04-20 16:01 | 44.28746 | 42.98696 | 4856 ft | 256 kts | 356° |
| 2026-04-20 16:01 | 44.30501 | 42.99233 | 5712 ft | 268 kts | 26° |
| 2026-04-20 16:02 | 44.32020 | 43.00830 | 6529 ft | 277 kts | 37° |
| 2026-04-20 16:02 | 44.33506 | 43.02587 | 7313 ft | 283 kts | 37° |
| 2026-04-20 16:02 | 44.35021 | 43.04404 | 8070 ft | 290 kts | 38° |
| 2026-04-20 16:02 | 44.36572 | 43.06259 | 8847 ft | 297 kts | 38° |
| 2026-04-20 16:03 | 44.38159 | 43.08152 | 9611 ft | 304 kts | 37° |
| 2026-04-20 16:03 | 44.39793 | 43.10094 | 10253 ft | 315 kts | 37° |
| 2026-04-20 16:03 | 44.41523 | 43.12149 | 10485 ft | 338 kts | 37° |
| 2026-04-20 16:03 | 44.43383 | 43.14354 | 10695 ft | 361 kts | 37° |
| 2026-04-20 16:04 | 44.45336 | 43.16663 | 11173 ft | 373 kts | 37° |
| 2026-04-20 16:04 | 44.47329 | 43.19027 | 11896 ft | 376 kts | 38° |
| 2026-04-20 16:04 | 44.49324 | 43.21408 | 12663 ft | 378 kts | 38° |
| 2026-04-20 16:04 | 44.51331 | 43.23810 | 13425 ft | 381 kts | 38° |
| 2026-04-20 16:05 | 44.53349 | 43.26229 | 14137 ft | 383 kts | 38° |
| 2026-04-20 16:05 | 44.55386 | 43.28668 | 14773 ft | 386 kts | 38° |
| 2026-04-20 16:05 | 44.57440 | 43.31121 | 15385 ft | 390 kts | 38° |
| 2026-04-20 16:05 | 44.59513 | 43.33595 | 16000 ft | 393 kts | 38° |
| 2026-04-20 16:06 | 44.61605 | 43.36089 | 16605 ft | 396 kts | 38° |
| 2026-04-20 16:06 | 44.63717 | 43.38608 | 17221 ft | 400 kts | 38° |
| 2026-04-20 16:06 | 44.65844 | 43.41152 | 17820 ft | 404 kts | 38° |
| 2026-04-20 16:06 | 44.67990 | 43.43733 | 18412 ft | 407 kts | 38° |
| 2026-04-20 16:07 | 44.70147 | 43.46334 | 18929 ft | 411 kts | 38° |
| 2026-04-20 16:07 | 44.72327 | 43.48978 | 19384 ft | 417 kts | 40° |
| 2026-04-20 16:07 | 44.74319 | 43.51980 | 19863 ft | 424 kts | 50° |
| 2026-04-20 16:07 | 44.75950 | 43.55464 | 20347 ft | 429 kts | 61° |
| 2026-04-20 16:08 | 44.77186 | 43.59310 | 20818 ft | 434 kts | 67° |
| 2026-04-20 16:08 | 44.78343 | 43.63249 | 21289 ft | 438 kts | 67° |
| 2026-04-20 16:08 | 44.79532 | 43.67279 | 21755 ft | 441 kts | 67° |
| 2026-04-20 16:08 | 44.80713 | 43.71288 | 22189 ft | 445 kts | 67° |
| 2026-04-20 16:09 | 44.81901 | 43.75331 | 22629 ft | 449 kts | 68° |
| 2026-04-20 16:09 | 44.83097 | 43.79413 | 23034 ft | 453 kts | 68° |
| 2026-04-20 16:09 | 44.84302 | 43.83531 | 23453 ft | 457 kts | 68° |
| 2026-04-20 16:09 | 44.85515 | 43.87686 | 23813 ft | 460 kts | 68° |
| 2026-04-20 16:10 | 44.86734 | 43.91869 | 24163 ft | 463 kts | 68° |
| 2026-04-20 16:10 | 44.87958 | 43.96082 | 24508 ft | 465 kts | 68° |
| 2026-04-20 16:10 | 44.89186 | 44.00311 | 24845 ft | 468 kts | 68° |
| 2026-04-20 16:10 | 44.90421 | 44.04564 | 25189 ft | 470 kts | 68° |
| 2026-04-20 16:11 | 44.91663 | 44.08844 | 25522 ft | 473 kts | 68° |
| 2026-04-20 16:11 | 44.92912 | 44.13149 | 25831 ft | 475 kts | 69° |
| 2026-04-20 16:11 | 44.94165 | 44.17484 | 26129 ft | 478 kts | 69° |
| 2026-04-20 16:11 | 44.95419 | 44.21849 | 26432 ft | 481 kts | 69° |
| 2026-04-20 16:12 | 44.96678 | 44.26234 | 26735 ft | 483 kts | 69° |
| 2026-04-20 16:12 | 44.97942 | 44.30638 | 27041 ft | 486 kts | 69° |
| 2026-04-20 16:12 | 44.99214 | 44.35071 | 27330 ft | 488 kts | 69° |
| 2026-04-20 16:12 | 45.00489 | 44.39522 | 27609 ft | 490 kts | 69° |
| 2026-04-20 16:13 | 45.01770 | 44.43996 | 27886 ft | 492 kts | 69° |
| 2026-04-20 16:13 | 45.03054 | 44.48487 | 28158 ft | 495 kts | 69° |
| 2026-04-20 16:13 | 45.04345 | 44.53015 | 28321 ft | 499 kts | 70° |
| 2026-04-20 16:13 | 45.05643 | 44.57576 | 28528 ft | 502 kts | 70° |
| 2026-04-20 16:14 | 45.06947 | 44.62172 | 28750 ft | 504 kts | 70° |
| 2026-04-20 16:14 | 45.08253 | 44.66785 | 28988 ft | 506 kts | 70° |
| 2026-04-20 16:14 | 45.09559 | 44.71413 | 29274 ft | 507 kts | 70° |
| 2026-04-20 16:14 | 45.10860 | 44.76039 | 29604 ft | 506 kts | 70° |
| 2026-04-20 16:15 | 45.12161 | 44.80678 | 29943 ft | 506 kts | 70° |
| 2026-04-20 16:15 | 45.13459 | 44.85303 | 30230 ft | 506 kts | 70° |
| 2026-04-20 16:15 | 45.14760 | 44.89934 | 30501 ft | 506 kts | 70° |
| 2026-04-20 16:15 | 45.16058 | 44.94554 | 30774 ft | 505 kts | 70° |
| 2026-04-20 16:16 | 45.17354 | 44.99184 | 31046 ft | 505 kts | 71° |
| 2026-04-20 16:16 | 45.18641 | 45.03806 | 31320 ft | 504 kts | 71° |
| 2026-04-20 16:16 | 45.19928 | 45.08433 | 31601 ft | 504 kts | 71° |
| 2026-04-20 16:16 | 45.21212 | 45.13051 | 31900 ft | 503 kts | 71° |
| 2026-04-20 16:17 | 45.22493 | 45.17672 | 32162 ft | 503 kts | 71° |
| 2026-04-20 16:17 | 45.23787 | 45.22355 | 32424 ft | 503 kts | 71° |
| 2026-04-20 16:17 | 45.25047 | 45.26923 | 32703 ft | 503 kts | 71° |
| 2026-04-20 16:17 | 45.26337 | 45.31604 | 32996 ft | 503 kts | 71° |
| 2026-04-20 16:18 | 45.27610 | 45.36225 | 33281 ft | 502 kts | 71° |
| 2026-04-20 16:18 | 45.28905 | 45.40819 | 33578 ft | 502 kts | 70° |
| 2026-04-20 16:18 | 45.30238 | 45.45333 | 33851 ft | 502 kts | 69° |
| 2026-04-20 16:18 | 45.31642 | 45.49944 | 34111 ft | 502 kts | 69° |
| 2026-04-20 16:19 | 45.33039 | 45.54478 | 34351 ft | 501 kts | 69° |
| 2026-04-20 16:19 | 45.34433 | 45.59020 | 34592 ft | 501 kts | 69° |
| 2026-04-20 16:19 | 45.35811 | 45.63564 | 34821 ft | 500 kts | 69° |
| 2026-04-20 16:19 | 45.37172 | 45.68106 | 35045 ft | 500 kts | 69° |
| 2026-04-20 16:20 | 45.38524 | 45.72656 | 35264 ft | 499 kts | 69° |
| 2026-04-20 16:20 | 45.39869 | 45.77205 | 35474 ft | 499 kts | 69° |
| 2026-04-20 16:20 | 45.41212 | 45.81758 | 35630 ft | 499 kts | 69° |
| 2026-04-20 16:20 | 45.42556 | 45.86317 | 35825 ft | 499 kts | 69° |
| 2026-04-20 16:21 | 45.43899 | 45.90873 | 36019 ft | 499 kts | 69° |
| 2026-04-20 16:21 | 45.45242 | 45.95431 | 36211 ft | 499 kts | 69° |
| 2026-04-20 16:21 | 45.46581 | 45.99982 | 36407 ft | 498 kts | 69° |
| 2026-04-20 16:21 | 45.47917 | 46.04530 | 36594 ft | 498 kts | 69° |
| 2026-04-20 16:22 | 45.49250 | 46.09080 | 36782 ft | 497 kts | 69° |
| 2026-04-20 16:22 | 45.50579 | 46.13630 | 36947 ft | 497 kts | 69° |
| 2026-04-20 16:22 | 45.53240 | 46.22767 | 36977 ft | 499 kts | 69° |
| 2026-04-20 16:23 | 45.55903 | 46.31910 | 36975 ft | 499 kts | 69° |
| 2026-04-20 16:23 | 45.58562 | 46.41074 | 36975 ft | 500 kts | 69° |
| 2026-04-20 16:24 | 45.61212 | 46.50246 | 36973 ft | 500 kts | 70° |
| 2026-04-20 16:24 | 45.63844 | 46.59433 | 36974 ft | 500 kts | 70° |
| 2026-04-20 16:25 | 45.66469 | 46.68622 | 36973 ft | 502 kts | 70° |
| 2026-04-20 16:25 | 45.69136 | 46.77999 | 36972 ft | 507 kts | 70° |
| 2026-04-20 16:26 | 45.71796 | 46.87351 | 37177 ft | 507 kts | 70° |
| 2026-04-20 16:26 | 45.73121 | 46.92023 | 37305 ft | 506 kts | 70° |
| 2026-04-20 16:26 | 45.74439 | 46.96684 | 37430 ft | 505 kts | 70° |
| 2026-04-20 16:27 | 45.75753 | 47.01342 | 37567 ft | 504 kts | 70° |
| 2026-04-20 16:27 | 45.77062 | 47.05995 | 37701 ft | 503 kts | 70° |
| 2026-04-20 16:27 | 45.78370 | 47.10647 | 37823 ft | 503 kts | 70° |
| 2026-04-20 16:27 | 45.79674 | 47.15292 | 37979 ft | 502 kts | 70° |
| 2026-04-20 16:28 | 45.80972 | 47.19927 | 38109 ft | 501 kts | 70° |
| 2026-04-20 16:28 | 45.82267 | 47.24565 | 38218 ft | 500 kts | 70° |
| 2026-04-20 16:28 | 45.83555 | 47.29192 | 38360 ft | 500 kts | 70° |
| 2026-04-20 16:28 | 45.84839 | 47.33821 | 38495 ft | 499 kts | 70° |
| 2026-04-20 16:29 | 45.86119 | 47.38445 | 38627 ft | 498 kts | 70° |
| 2026-04-20 16:29 | 45.87396 | 47.43060 | 38739 ft | 498 kts | 70° |
| 2026-04-20 16:29 | 45.88671 | 47.47668 | 38881 ft | 496 kts | 70° |
| 2026-04-20 16:29 | 45.89943 | 47.52274 | 38946 ft | 497 kts | 70° |
| 2026-04-20 16:30 | 45.92491 | 47.61531 | 38962 ft | 500 kts | 70° |
| 2026-04-20 16:30 | 45.94618 | 47.69288 | 38962 ft | 503 kts | 70° |
| 2026-04-20 16:31 | 45.97192 | 47.78734 | 38958 ft | 506 kts | 70° |
| 2026-04-20 16:31 | 45.99761 | 47.88170 | 38960 ft | 508 kts | 70° |
| 2026-04-20 16:32 | 46.02334 | 47.97643 | 38960 ft | 509 kts | 70° |
| 2026-04-20 16:32 | 46.04901 | 48.07147 | 38963 ft | 510 kts | 70° |
| 2026-04-20 16:33 | 46.07461 | 48.16669 | 38959 ft | 511 kts | 70° |
| 2026-04-20 16:33 | 46.10021 | 48.26219 | 38957 ft | 511 kts | 70° |
| 2026-04-20 16:34 | 46.12574 | 48.35783 | 38951 ft | 511 kts | 70° |
| 2026-04-20 16:34 | 46.15119 | 48.45368 | 38936 ft | 512 kts | 70° |
| 2026-04-20 16:35 | 46.17665 | 48.54967 | 38921 ft | 513 kts | 70° |
| 2026-04-20 16:35 | 46.20223 | 48.64568 | 38935 ft | 512 kts | 70° |
| 2026-04-20 16:36 | 46.22920 | 48.74086 | 38927 ft | 513 kts | 68° |
| 2026-04-20 16:36 | 46.25686 | 48.83589 | 38928 ft | 513 kts | 69° |
| 2026-04-20 16:37 | 46.28412 | 48.93120 | 38923 ft | 513 kts | 69° |
| 2026-04-20 16:37 | 46.31100 | 49.02696 | 38900 ft | 514 kts | 69° |
| 2026-04-20 16:38 | 46.33776 | 49.12285 | 38892 ft | 514 kts | 69° |
| 2026-04-20 16:38 | 46.36482 | 49.21948 | 38887 ft | 515 kts | 68° |
| 2026-04-20 16:39 | 46.39406 | 49.31410 | 38884 ft | 515 kts | 66° |
| 2026-04-20 16:39 | 46.42477 | 49.40782 | 38879 ft | 515 kts | 65° |
| 2026-04-20 16:40 | 46.45488 | 49.50134 | 38869 ft | 515 kts | 66° |
| 2026-04-20 16:40 | 46.48461 | 49.59655 | 38871 ft | 515 kts | 66° |
| 2026-04-20 16:41 | 46.51391 | 49.69140 | 38873 ft | 515 kts | 66° |
| 2026-04-20 16:41 | 46.54329 | 49.78624 | 38865 ft | 515 kts | 66° |
| 2026-04-20 16:42 | 46.57263 | 49.88103 | 38865 ft | 514 kts | 66° |
| 2026-04-20 16:42 | 46.60189 | 49.97587 | 38864 ft | 514 kts | 66° |
| 2026-04-20 16:43 | 46.63101 | 50.07067 | 38853 ft | 514 kts | 66° |
| 2026-04-20 16:43 | 46.66005 | 50.16559 | 38850 ft | 514 kts | 66° |
| 2026-04-20 16:44 | 46.68903 | 50.26072 | 38852 ft | 513 kts | 66° |
| 2026-04-20 16:44 | 46.71793 | 50.35587 | 38851 ft | 513 kts | 67° |
| 2026-04-20 16:45 | 46.74673 | 50.45110 | 38841 ft | 513 kts | 67° |
| 2026-04-20 16:45 | 46.77542 | 50.54638 | 38861 ft | 513 kts | 67° |
| 2026-04-20 16:46 | 46.80406 | 50.64186 | 38845 ft | 514 kts | 67° |
| 2026-04-20 16:46 | 46.83272 | 50.73758 | 38833 ft | 515 kts | 67° |
| 2026-04-20 16:47 | 46.86130 | 50.83341 | 38831 ft | 514 kts | 67° |
| 2026-04-20 16:47 | 46.88977 | 50.92931 | 38830 ft | 514 kts | 67° |
| 2026-04-20 16:48 | 46.91822 | 51.02535 | 38820 ft | 514 kts | 67° |
| 2026-04-20 16:48 | 46.94650 | 51.12145 | 38819 ft | 514 kts | 67° |
| 2026-04-20 16:49 | 46.97479 | 51.21759 | 38822 ft | 514 kts | 67° |
| 2026-04-20 16:49 | 47.00305 | 51.31385 | 38816 ft | 514 kts | 67° |
| 2026-04-20 16:50 | 47.03110 | 51.41018 | 38810 ft | 514 kts | 68° |
| 2026-04-20 16:50 | 47.05928 | 51.50727 | 38810 ft | 514 kts | 68° |
| 2026-04-20 16:51 | 47.08699 | 51.60303 | 38806 ft | 513 kts | 68° |
| 2026-04-20 16:51 | 47.11477 | 51.69954 | 38818 ft | 513 kts | 68° |
| 2026-04-20 16:52 | 47.14524 | 51.79415 | 38816 ft | 513 kts | 57° |
| 2026-04-20 16:52 | 47.19096 | 51.87509 | 38810 ft | 512 kts | 46° |
| 2026-04-20 16:53 | 47.23973 | 51.95127 | 38810 ft | 511 kts | 46° |
| 2026-04-20 16:53 | 47.28835 | 52.02777 | 38803 ft | 511 kts | 46° |
| 2026-04-20 16:54 | 47.33679 | 52.10449 | 38796 ft | 511 kts | 46° |
| 2026-04-20 16:54 | 47.38525 | 52.18124 | 38791 ft | 511 kts | 46° |
| 2026-04-20 16:55 | 47.43366 | 52.25793 | 38788 ft | 511 kts | 46° |
| 2026-04-20 16:55 | 47.48202 | 52.33484 | 38789 ft | 511 kts | 46° |
| 2026-04-20 16:56 | 47.53021 | 52.41193 | 38785 ft | 510 kts | 47° |
| 2026-04-20 16:56 | 47.57831 | 52.48909 | 38808 ft | 510 kts | 47° |
| 2026-04-20 16:57 | 47.62634 | 52.56640 | 38806 ft | 510 kts | 47° |
| 2026-04-20 16:57 | 47.67435 | 52.64364 | 38801 ft | 510 kts | 47° |
| 2026-04-20 16:58 | 47.72243 | 52.72099 | 38794 ft | 509 kts | 47° |
| 2026-04-20 16:58 | 47.77035 | 52.79849 | 38776 ft | 510 kts | 47° |
| 2026-04-20 16:59 | 47.81828 | 52.87627 | 38771 ft | 510 kts | 47° |
| 2026-04-20 16:59 | 47.86609 | 52.95415 | 38767 ft | 509 kts | 47° |
| 2026-04-20 17:00 | 47.93797 | 53.07171 | 38764 ft | 509 kts | 47° |
| 2026-04-20 17:01 | 47.98569 | 53.14999 | 38759 ft | 509 kts | 47° |
| 2026-04-20 17:01 | 48.03333 | 53.22820 | 38747 ft | 509 kts | 47° |
| 2026-04-20 17:02 | 48.08090 | 53.30667 | 38769 ft | 509 kts | 47° |
| 2026-04-20 17:02 | 48.12849 | 53.38520 | 38767 ft | 509 kts | 47° |
| 2026-04-20 17:03 | 48.17593 | 53.46396 | 38771 ft | 509 kts | 48° |
| 2026-04-20 17:03 | 48.22326 | 53.54277 | 38762 ft | 509 kts | 48° |
| 2026-04-20 17:04 | 48.27047 | 53.62163 | 38766 ft | 508 kts | 48° |
| 2026-04-20 17:04 | 48.31769 | 53.70068 | 38751 ft | 508 kts | 48° |
| 2026-04-20 17:05 | 48.35687 | 53.76652 | 38754 ft | 508 kts | 48° |
| 2026-04-20 17:05 | 48.40389 | 53.84562 | 38748 ft | 507 kts | 48° |
| 2026-04-20 17:06 | 48.45084 | 53.92493 | 38740 ft | 507 kts | 49° |
| 2026-04-20 17:06 | 48.49772 | 54.00437 | 38741 ft | 507 kts | 48° |
| 2026-04-20 17:07 | 48.54466 | 54.08398 | 38733 ft | 507 kts | 48° |
| 2026-04-20 17:07 | 48.59140 | 54.16372 | 38733 ft | 507 kts | 49° |
| 2026-04-20 17:08 | 48.63815 | 54.24367 | 38733 ft | 508 kts | 49° |
| 2026-04-20 17:08 | 48.68490 | 54.32375 | 38746 ft | 507 kts | 49° |
| 2026-04-20 17:09 | 48.73151 | 54.40393 | 38737 ft | 507 kts | 49° |
| 2026-04-20 17:09 | 48.77800 | 54.48405 | 38745 ft | 507 kts | 49° |
| 2026-04-20 17:10 | 48.82450 | 54.56456 | 38737 ft | 507 kts | 49° |
| 2026-04-20 17:10 | 48.87099 | 54.64520 | 38734 ft | 507 kts | 49° |
| 2026-04-20 17:11 | 48.91768 | 54.72648 | 38735 ft | 507 kts | 49° |
| 2026-04-20 17:11 | 48.96398 | 54.80736 | 38736 ft | 507 kts | 49° |
| 2026-04-20 17:12 | 49.01019 | 54.88840 | 38729 ft | 507 kts | 49° |
| 2026-04-20 17:12 | 49.05638 | 54.96960 | 38734 ft | 507 kts | 49° |
| 2026-04-20 17:13 | 49.10258 | 55.05082 | 38732 ft | 507 kts | 49° |
| 2026-04-20 17:13 | 49.14869 | 55.13229 | 38733 ft | 507 kts | 49° |
| 2026-04-20 17:14 | 49.19468 | 55.21392 | 38743 ft | 507 kts | 49° |
| 2026-04-20 17:14 | 49.24069 | 55.29567 | 38742 ft | 507 kts | 49° |
| 2026-04-20 17:15 | 49.28653 | 55.37743 | 38742 ft | 506 kts | 49° |
| 2026-04-20 17:15 | 49.33238 | 55.45955 | 38742 ft | 506 kts | 49° |
| 2026-04-20 17:16 | 49.37805 | 55.54169 | 38754 ft | 506 kts | 49° |
| 2026-04-20 17:16 | 49.42371 | 55.62389 | 38751 ft | 506 kts | 49° |
| 2026-04-20 17:17 | 49.46932 | 55.70622 | 38757 ft | 506 kts | 50° |
| 2026-04-20 17:17 | 49.51493 | 55.78879 | 38751 ft | 506 kts | 50° |
| 2026-04-20 17:18 | 49.56075 | 55.87217 | 38752 ft | 507 kts | 50° |
| 2026-04-20 17:18 | 49.60619 | 55.95513 | 38751 ft | 507 kts | 50° |
| 2026-04-20 17:19 | 49.65131 | 56.03767 | 38750 ft | 507 kts | 50° |
| 2026-04-20 17:19 | 49.69667 | 56.12098 | 38751 ft | 507 kts | 50° |
| 2026-04-20 17:20 | 49.74227 | 56.20491 | 38752 ft | 507 kts | 50° |
| 2026-04-20 17:20 | 49.78751 | 56.28852 | 38752 ft | 507 kts | 50° |
| 2026-04-20 17:21 | 49.83272 | 56.37222 | 38752 ft | 507 kts | 50° |
| 2026-04-20 17:21 | 49.87780 | 56.45607 | 38751 ft | 506 kts | 50° |
| 2026-04-20 17:22 | 49.92290 | 56.54000 | 38755 ft | 506 kts | 50° |
| 2026-04-20 17:22 | 49.96797 | 56.62391 | 38758 ft | 506 kts | 50° |
| 2026-04-20 17:23 | 50.01299 | 56.70807 | 38757 ft | 506 kts | 50° |
| 2026-04-20 17:23 | 50.05789 | 56.79240 | 38759 ft | 506 kts | 50° |
| 2026-04-20 17:24 | 50.10269 | 56.87676 | 38771 ft | 505 kts | 50° |
| 2026-04-20 17:24 | 50.14740 | 56.96131 | 38774 ft | 506 kts | 50° |
| 2026-04-20 17:25 | 50.19214 | 57.04609 | 38772 ft | 506 kts | 51° |
| 2026-04-20 17:25 | 50.23769 | 57.12984 | 38767 ft | 505 kts | 43° |
| 2026-04-20 17:26 | 50.29433 | 57.19343 | 38776 ft | 501 kts | 24° |
| 2026-04-20 17:26 | 50.35997 | 57.23071 | 38773 ft | 499 kts | 15° |
| 2026-04-20 17:27 | 50.42603 | 57.26403 | 38767 ft | 499 kts | 15° |
| 2026-04-20 17:27 | 50.49208 | 57.29772 | 38766 ft | 499 kts | 15° |
| 2026-04-20 17:28 | 50.55810 | 57.33156 | 38787 ft | 499 kts | 15° |
| 2026-04-20 17:28 | 50.62414 | 57.36539 | 38782 ft | 500 kts | 15° |
| 2026-04-20 17:29 | 50.69027 | 57.39944 | 38770 ft | 500 kts | 15° |
| 2026-04-20 17:29 | 50.75638 | 57.43354 | 38775 ft | 500 kts | 15° |
| 2026-04-20 17:30 | 50.82249 | 57.46765 | 38778 ft | 500 kts | 15° |
| 2026-04-20 17:30 | 50.88860 | 57.50190 | 38796 ft | 500 kts | 15° |
| 2026-04-20 17:31 | 50.95515 | 57.53386 | 38793 ft | 500 kts | 13° |
| 2026-04-20 17:31 | 51.02198 | 57.56424 | 38794 ft | 500 kts | 13° |
| 2026-04-20 17:32 | 51.08882 | 57.59504 | 38782 ft | 500 kts | 14° |
| 2026-04-20 17:32 | 51.15550 | 57.62662 | 38794 ft | 499 kts | 14° |
| 2026-04-20 17:33 | 51.22207 | 57.65825 | 38804 ft | 500 kts | 14° |
| 2026-04-20 17:33 | 51.28887 | 57.69000 | 38796 ft | 501 kts | 14° |
| 2026-04-20 17:34 | 51.35564 | 57.72189 | 38793 ft | 501 kts | 14° |
| 2026-04-20 17:34 | 51.42280 | 57.75406 | 38800 ft | 501 kts | 14° |
| 2026-04-20 17:35 | 51.48956 | 57.78601 | 38816 ft | 500 kts | 14° |
| 2026-04-20 17:35 | 51.55631 | 57.81807 | 38800 ft | 501 kts | 14° |
| 2026-04-20 17:36 | 51.62311 | 57.85031 | 38802 ft | 501 kts | 14° |
| 2026-04-20 17:36 | 51.68986 | 57.88261 | 38801 ft | 501 kts | 14° |
| 2026-04-20 17:37 | 51.75661 | 57.91511 | 38811 ft | 501 kts | 14° |
| 2026-04-20 17:37 | 51.82335 | 57.94766 | 38834 ft | 500 kts | 14° |
| 2026-04-20 17:38 | 51.89001 | 57.98021 | 38822 ft | 501 kts | 14° |
| 2026-04-20 17:38 | 51.95678 | 58.01282 | 38816 ft | 501 kts | 14° |
| 2026-04-20 17:39 | 52.01231 | 58.04012 | 38816 ft | 502 kts | 14° |
| 2026-04-20 17:39 | 52.07910 | 58.07308 | 38819 ft | 501 kts | 14° |
| 2026-04-20 17:40 | 52.14618 | 58.10631 | 38829 ft | 501 kts | 14° |
| 2026-04-20 17:40 | 52.21288 | 58.13944 | 38830 ft | 501 kts | 14° |
| 2026-04-20 17:41 | 52.27915 | 58.17240 | 38837 ft | 501 kts | 14° |
| 2026-04-20 17:41 | 52.34592 | 58.20571 | 38838 ft | 501 kts | 14° |
| 2026-04-20 17:42 | 52.41259 | 58.23907 | 38843 ft | 501 kts | 14° |
| 2026-04-20 17:42 | 52.47969 | 58.27279 | 38862 ft | 501 kts | 14° |
| 2026-04-20 17:43 | 52.54645 | 58.30638 | 38846 ft | 502 kts | 14° |
| 2026-04-20 17:43 | 52.61288 | 58.34004 | 38834 ft | 502 kts | 14° |
| 2026-04-20 17:44 | 52.68000 | 58.37484 | 38837 ft | 503 kts | 15° |
| 2026-04-20 17:44 | 52.74669 | 58.40975 | 38844 ft | 503 kts | 15° |
| 2026-04-20 17:45 | 52.81341 | 58.44461 | 38866 ft | 503 kts | 15° |
| 2026-04-20 17:45 | 52.88015 | 58.47943 | 38853 ft | 503 kts | 15° |
| 2026-04-20 17:46 | 52.94691 | 58.51444 | 38853 ft | 503 kts | 15° |
| 2026-04-20 17:46 | 53.01319 | 58.54936 | 38847 ft | 503 kts | 15° |
| 2026-04-20 17:47 | 53.08036 | 58.58484 | 38853 ft | 503 kts | 15° |
| 2026-04-20 17:47 | 53.14706 | 58.62014 | 38875 ft | 503 kts | 15° |
| 2026-04-20 17:48 | 53.21379 | 58.65554 | 38865 ft | 503 kts | 15° |
| 2026-04-20 17:48 | 53.28049 | 58.69120 | 38859 ft | 503 kts | 15° |
| 2026-04-20 17:49 | 53.34722 | 58.72703 | 38852 ft | 503 kts | 15° |
| 2026-04-20 17:49 | 53.41394 | 58.76269 | 38855 ft | 503 kts | 14° |
| 2026-04-20 17:50 | 53.48092 | 58.79664 | 38854 ft | 503 kts | 13° |
| 2026-04-20 17:50 | 53.54812 | 58.82898 | 38867 ft | 503 kts | 13° |
| 2026-04-20 17:51 | 53.61545 | 58.86159 | 38857 ft | 503 kts | 13° |
| 2026-04-20 17:51 | 53.68259 | 58.89491 | 38852 ft | 503 kts | 14° |
| 2026-04-20 17:52 | 53.74972 | 58.92880 | 38859 ft | 503 kts | 14° |
| 2026-04-20 17:52 | 53.81686 | 58.96258 | 38859 ft | 503 kts | 13° |
| 2026-04-20 17:53 | 53.88399 | 58.99620 | 38852 ft | 503 kts | 13° |
| 2026-04-20 17:53 | 53.95105 | 59.02989 | 38845 ft | 503 kts | 14° |
| 2026-04-20 17:54 | 54.01810 | 59.06397 | 38854 ft | 503 kts | 14° |
| 2026-04-20 17:54 | 54.08502 | 59.09849 | 38861 ft | 502 kts | 14° |
| 2026-04-20 17:55 | 54.15188 | 59.13360 | 38859 ft | 503 kts | 14° |
| 2026-04-20 17:55 | 54.21870 | 59.16883 | 38863 ft | 503 kts | 14° |
| 2026-04-20 17:56 | 54.28606 | 59.20419 | 38863 ft | 503 kts | 14° |
| 2026-04-20 17:56 | 54.35296 | 59.23924 | 38863 ft | 503 kts | 14° |
| 2026-04-20 17:57 | 54.41988 | 59.27447 | 38861 ft | 503 kts | 14° |
| 2026-04-20 17:57 | 54.48671 | 59.31000 | 38866 ft | 503 kts | 14° |
| 2026-04-20 17:58 | 54.55342 | 59.34563 | 38860 ft | 500 kts | 14° |
| 2026-04-20 17:58 | 54.61982 | 59.38112 | 38863 ft | 500 kts | 14° |
| 2026-04-20 17:59 | 54.68646 | 59.41675 | 38860 ft | 500 kts | 14° |
| 2026-04-20 17:59 | 54.75297 | 59.45238 | 38866 ft | 501 kts | 14° |
| 2026-04-20 18:00 | 54.81963 | 59.48739 | 38866 ft | 501 kts | 13° |
| 2026-04-20 18:00 | 54.88640 | 59.52228 | 38886 ft | 501 kts | 14° |
| 2026-04-20 18:01 | 54.95307 | 59.55743 | 38874 ft | 501 kts | 14° |
| 2026-04-20 18:01 | 54.98637 | 59.57512 | 38741 ft | 498 kts | 14° |
| 2026-04-20 18:01 | 55.01940 | 59.59272 | 38189 ft | 494 kts | 14° |
| 2026-04-20 18:01 | 55.05194 | 59.61013 | 37724 ft | 485 kts | 14° |
| 2026-04-20 18:02 | 55.08348 | 59.62704 | 37074 ft | 481 kts | 13° |
| 2026-04-20 18:02 | 55.11590 | 59.64438 | 36291 ft | 481 kts | 13° |
| 2026-04-20 18:02 | 55.14785 | 59.66147 | 35571 ft | 481 kts | 13° |
| 2026-04-20 18:02 | 55.17986 | 59.67862 | 34844 ft | 481 kts | 13° |
| 2026-04-20 18:03 | 55.21182 | 59.69572 | 34178 ft | 481 kts | 12° |
| 2026-04-20 18:03 | 55.24416 | 59.71145 | 33426 ft | 482 kts | 9° |
| 2026-04-20 18:03 | 55.27675 | 59.72491 | 32637 ft | 481 kts | 7° |
| 2026-04-20 18:03 | 55.30952 | 59.73684 | 31887 ft | 481 kts | 7° |
| 2026-04-20 18:04 | 55.34243 | 59.74815 | 31139 ft | 482 kts | 7° |
| 2026-04-20 18:04 | 55.37537 | 59.75947 | 30410 ft | 483 kts | 7° |
| 2026-04-20 18:04 | 55.40830 | 59.77121 | 29629 ft | 484 kts | 8° |
| 2026-04-20 18:04 | 55.44123 | 59.78385 | 28813 ft | 485 kts | 9° |
| 2026-04-20 18:05 | 55.50677 | 59.81108 | 27179 ft | 481 kts | 10° |
| 2026-04-20 18:05 | 55.53906 | 59.82488 | 26411 ft | 475 kts | 10° |
| 2026-04-20 18:05 | 55.57108 | 59.83847 | 25652 ft | 470 kts | 9° |
| 2026-04-20 18:06 | 55.60312 | 59.85186 | 24923 ft | 465 kts | 9° |
| 2026-04-20 18:06 | 55.63443 | 59.86480 | 24204 ft | 460 kts | 9° |
| 2026-04-20 18:06 | 55.66546 | 59.87759 | 23494 ft | 455 kts | 9° |
| 2026-04-20 18:06 | 55.69613 | 59.89020 | 22684 ft | 451 kts | 9° |
| 2026-04-20 18:07 | 55.72655 | 59.90271 | 21944 ft | 446 kts | 9° |
| 2026-04-20 18:07 | 55.75654 | 59.91512 | 21350 ft | 439 kts | 9° |
| 2026-04-20 18:07 | 55.78609 | 59.92742 | 20764 ft | 433 kts | 9° |
| 2026-04-20 18:07 | 55.81531 | 59.93960 | 20175 ft | 428 kts | 9° |
| 2026-04-20 18:08 | 55.84413 | 59.95164 | 19614 ft | 424 kts | 10° |
| 2026-04-20 18:08 | 55.87268 | 59.96358 | 19056 ft | 419 kts | 10° |
| 2026-04-20 18:08 | 55.90101 | 59.97543 | 18519 ft | 416 kts | 10° |
| 2026-04-20 18:08 | 55.92901 | 59.98748 | 17961 ft | 413 kts | 12° |
| 2026-04-20 18:09 | 55.95665 | 60.00101 | 17332 ft | 410 kts | 13° |
| 2026-04-20 18:09 | 55.98384 | 60.01558 | 16727 ft | 407 kts | 14° |
| 2026-04-20 18:09 | 56.01071 | 60.03068 | 16133 ft | 403 kts | 15° |
| 2026-04-20 18:09 | 56.03735 | 60.04578 | 15540 ft | 400 kts | 15° |
| 2026-04-20 18:10 | 56.06377 | 60.06062 | 14972 ft | 396 kts | 15° |
| 2026-04-20 18:10 | 56.09000 | 60.07517 | 14407 ft | 393 kts | 14° |
| 2026-04-20 18:10 | 56.11607 | 60.08946 | 13856 ft | 389 kts | 15° |
| 2026-04-20 18:10 | 56.14180 | 60.10340 | 13247 ft | 385 kts | 15° |
| 2026-04-20 18:11 | 56.16740 | 60.11717 | 12624 ft | 382 kts | 15° |
| 2026-04-20 18:11 | 56.19279 | 60.13084 | 12030 ft | 380 kts | 15° |
| 2026-04-20 18:11 | 56.21802 | 60.14446 | 11444 ft | 376 kts | 15° |
| 2026-04-20 18:11 | 56.24291 | 60.15795 | 10870 ft | 372 kts | 16° |
| 2026-04-20 18:12 | 56.26763 | 60.17142 | 10295 ft | 369 kts | 16° |
| 2026-04-20 18:12 | 56.29205 | 60.18476 | 9722 ft | 365 kts | 16° |
| 2026-04-20 18:12 | 56.31620 | 60.19800 | 9143 ft | 361 kts | 17° |
| 2026-04-20 18:12 | 56.34002 | 60.21108 | 8592 ft | 356 kts | 17° |
| 2026-04-20 18:13 | 56.36360 | 60.22403 | 8042 ft | 352 kts | 17° |
| 2026-04-20 18:13 | 56.38689 | 60.23679 | 7509 ft | 348 kts | 17° |
| 2026-04-20 18:13 | 56.40215 | 60.24514 | 7155 ft | 345 kts | 17° |
| 2026-04-20 18:13 | 56.43279 | 60.26184 | 6457 ft | 341 kts | 15° |
| 2026-04-20 18:14 | 56.44807 | 60.26807 | 6101 ft | 339 kts | 12° |
| 2026-04-20 18:14 | 56.47114 | 60.27636 | 5552 ft | 336 kts | 11° |
| 2026-04-20 18:14 | 56.49405 | 60.28397 | 5074 ft | 331 kts | 11° |
| 2026-04-20 18:14 | 56.51616 | 60.29108 | 4952 ft | 314 kts | 11° |
| 2026-04-20 18:15 | 56.53711 | 60.29781 | 4970 ft | 302 kts | 11° |
| 2026-04-20 18:15 | 56.55763 | 60.30453 | 4974 ft | 300 kts | 11° |
| 2026-04-20 18:15 | 56.57811 | 60.31135 | 4987 ft | 299 kts | 11° |
| 2026-04-20 18:15 | 56.59860 | 60.31828 | 4968 ft | 299 kts | 11° |
| 2026-04-20 18:16 | 56.61908 | 60.32522 | 4980 ft | 299 kts | 11° |
| 2026-04-20 18:16 | 56.63949 | 60.33213 | 4983 ft | 299 kts | 11° |
| 2026-04-20 18:16 | 56.65992 | 60.33906 | 4983 ft | 299 kts | 11° |
| 2026-04-20 18:16 | 56.67981 | 60.34925 | 4989 ft | 292 kts | 28° |
| 2026-04-20 18:17 | 56.69529 | 60.37072 | 4987 ft | 266 kts | 53° |
| 2026-04-20 18:17 | 56.70443 | 60.39761 | 4988 ft | 241 kts | 71° |
| 2026-04-20 18:17 | 56.71109 | 60.42546 | 4550 ft | 244 kts | 71° |
| 2026-04-20 18:17 | 56.71791 | 60.45409 | 4014 ft | 249 kts | 71° |
| 2026-04-20 18:18 | 56.72497 | 60.48356 | 3462 ft | 252 kts | 70° |
| 2026-04-20 18:18 | 56.73198 | 60.51274 | 3055 ft | 249 kts | 69° |
| 2026-04-20 18:18 | 56.73874 | 60.54075 | 3002 ft | 231 kts | 69° |
| 2026-04-20 18:18 | 56.74425 | 60.56693 | 3001 ft | 211 kts | 82° |
| 2026-04-20 18:19 | 56.74497 | 60.59229 | 3004 ft | 192 kts | 92° |
| 2026-04-20 18:19 | 56.74495 | 60.61615 | 2784 ft | 189 kts | 90° |
| 2026-04-20 18:19 | 56.74494 | 60.63961 | 2442 ft | 180 kts | 88° |
| 2026-04-20 18:19 | 56.74492 | 60.66106 | 2194 ft | 159 kts | 88° |
| 2026-04-20 18:20 | 56.74490 | 60.68005 | 1943 ft | 141 kts | 88° |
| 2026-04-20 18:20 | 56.74489 | 60.69703 | 1720 ft | 129 kts | 87° |
| 2026-04-20 18:20 | 56.74483 | 60.71307 | 1529 ft | 126 kts | 88° |
| 2026-04-20 18:20 | 56.74482 | 60.72881 | 1323 ft | 125 kts | 86° |
| 2026-04-20 18:21 | 56.74491 | 60.74470 | 1150 ft | 127 kts | 88° |
| 2026-04-20 18:21 | 56.74476 | 60.76088 | 990 ft | 126 kts | 85° |
| 2026-04-20 18:21 | 56.74480 | 60.77715 | 815 ft | 129 kts | 88° |
| 2026-04-20 18:21 | 56.74482 | 60.79241 | 779 ft | 103 kts | 89° |
| 2026-04-20 18:22 | 56.74477 | 60.80058 | 779 ft | 45 kts | 90° |
| 2026-04-20 18:22 | 56.74478 | 60.80545 | 779 ft | 21 kts | 90° |
| 2026-04-20 18:22 | 56.74549 | 60.80649 | 779 ft | 15 kts | 359° |
| 2026-04-20 18:22 | 56.74661 | 60.80647 | 779 ft | 17 kts | 359° |
| 2026-04-20 18:23 | 56.74791 | 60.80647 | 779 ft | 20 kts | 1° |
| 2026-04-20 18:23 | 56.74853 | 60.80584 | 779 ft | 10 kts | 283° |
| 2026-04-20 18:23 | 56.74854 | 60.80467 | 779 ft | 9 kts | 270° |
| 2026-04-20 18:23 | 56.74860 | 60.80363 | 779 ft | 8 kts | 297° |
| 2026-04-20 18:24 | 56.74900 | 60.80347 | 779 ft | 3 kts | 5° |
| 2026-04-20 18:24 | 56.74913 | 60.80347 | 779 ft | 0 kts | 359° |